Time;durP1;ratioP1;P1;durP2;ratioP2;P2;SDS_P1;SDS_P2;PMS_P1;PMS_P2;Temp;Humidity;BMP_temperature;BMP_pressure;BME280_temperature;BME280_humidity;BME280_pressure;Samples;Min_cycle;Max_cycle;Signal;HPM_P1;HPM_P2
2023/04/15 00:01:08;;;;;;;15.63;8.13;;;;;;;;;;5034836;28;20412;-43
2023/04/15 00:03:35;;;;;;;12.63;8.23;;;;;;;;;;5031905;28;20439;-43
2023/04/15 00:06:02;;;;;;;10.23;8.87;;;;;;;;;;5032720;28;20985;-44
2023/04/15 00:08:28;;;;;;;14.50;10.30;;;;;;;;;;5038793;28;20431;-43
2023/04/15 00:10:55;;;;;;;11.23;8.83;;;;;;;;;;5035344;28;20934;-43
2023/04/15 00:13:21;;;;;;;12.33;8.60;;;;;;;;;;5029674;28;20484;-43
2023/04/15 00:15:47;;;;;;;13.37;8.13;;;;;;;;;;5035890;28;20944;-43
2023/04/15 00:18:13;;;;;;;18.70;8.57;;;;;;;;;;5034987;28;20422;-43
2023/04/15 00:20:39;;;;;;;13.40;9.47;;;;;;;;;;5035178;28;20415;-43
2023/04/15 00:23:05;;;;;;;12.50;9.70;;;;;;;;;;5032351;28;20513;-43
2023/04/15 00:25:31;;;;;;;12.57;8.13;;;;;;;;;;5035034;28;20902;-43
2023/04/15 00:27:57;;;;;;;11.80;9.20;;;;;;;;;;5034894;28;20493;-43
2023/04/15 00:30:24;;;;;;;13.40;9.73;;;;;;;;;;5034989;28;20897;-43
2023/04/15 00:32:50;;;;;;;13.40;9.23;;;;;;;;;;5034061;28;20926;-43
2023/04/15 00:35:17;;;;;;;17.90;8.30;;;;;;;;;;5034873;28;20468;-43
2023/04/15 00:37:43;;;;;;;12.77;8.23;;;;;;;;;;5034169;28;20792;-44
2023/04/15 00:40:11;;;;;;;9.83;8.40;;;;;;;;;;5044233;28;20432;-43
2023/04/15 00:42:37;;;;;;;11.23;8.60;;;;;;;;;;5034018;28;20460;-43
2023/04/15 00:45:04;;;;;;;10.43;9.33;;;;;;;;;;5034555;28;20915;-43
2023/04/15 00:47:31;;;;;;;13.97;9.40;;;;;;;;;;5034659;28;20902;-43
2023/04/15 00:49:57;;;;;;;16.13;10.27;;;;;;;;;;5034676;28;20862;-44
2023/04/15 00:52:23;;;;;;;10.20;9.20;;;;;;;;;;5033945;28;20223;-44
2023/04/15 00:54:50;;;;;;;13.70;11.27;;;;;;;;;;5034516;28;20454;-44
2023/04/15 00:57:16;;;;;;;15.63;9.37;;;;;;;;;;5034495;28;20917;-43
2023/04/15 00:59:42;;;;;;;12.27;8.73;;;;;;;;;;5029256;28;20399;-43
2023/04/15 01:02:08;;;;;;;12.30;9.30;;;;;;;;;;5031236;28;20422;-43
2023/04/15 01:04:34;;;;;;;15.53;10.57;;;;;;;;;;5034049;28;20426;-44
2023/04/15 01:07:00;;;;;;;14.33;10.00;;;;;;;;;;5032545;28;20417;-43
2023/04/15 01:09:26;;;;;;;11.77;10.50;;;;;;;;;;5035193;28;20456;-45
2023/04/15 01:11:52;;;;;;;16.77;9.75;;;;;;;;;;5032781;28;20453;-44
2023/04/15 01:14:19;;;;;;;16.33;10.07;;;;;;;;;;5027467;28;20187;-44
2023/04/15 01:16:45;;;;;;;15.00;10.10;;;;;;;;;;5033890;28;20467;-44
2023/04/15 01:19:14;;;;;;;13.77;10.48;;;;;;;;;;5034061;28;20175;-43
2023/04/15 01:21:40;;;;;;;17.17;11.00;;;;;;;;;;5033190;28;20168;-43
2023/04/15 01:24:09;;;;;;;13.73;9.45;;;;;;;;;;5033979;28;20473;-43
2023/04/15 01:26:37;;;;;;;11.00;9.25;;;;;;;;;;5033697;28;20171;-44
2023/04/15 01:29:03;;;;;;;13.77;10.33;;;;;;;;;;5030316;28;20188;-43
2023/04/15 01:31:29;;;;;;;13.65;9.73;;;;;;;;;;5033228;28;20453;-42
2023/04/15 01:33:55;;;;;;;15.48;10.27;;;;;;;;;;5032615;28;20643;-43
2023/04/15 01:36:21;;;;;;;14.70;10.47;;;;;;;;;;5030582;28;20298;-43
2023/04/15 01:38:47;;;;;;;18.70;9.45;;;;;;;;;;5033448;28;20894;-46
2023/04/15 01:41:13;;;;;;;11.98;10.07;;;;;;;;;;5039129;28;20203;-43
2023/04/15 01:43:40;;;;;;;19.48;10.65;;;;;;;;;;5027945;28;20210;-43
2023/04/15 01:46:06;;;;;;;13.00;10.63;;;;;;;;;;5033531;28;20233;-43
2023/04/15 01:48:32;;;;;;;15.97;11.27;;;;;;;;;;5033639;28;20183;-43
2023/04/15 01:50:58;;;;;;;13.95;10.07;;;;;;;;;;5033454;28;20427;-43
2023/04/15 01:53:25;;;;;;;16.38;10.60;;;;;;;;;;5032893;28;20195;-43
2023/04/15 01:55:51;;;;;;;19.00;11.30;;;;;;;;;;5033445;28;20203;-43
2023/04/15 01:58:18;;;;;;;11.52;10.32;;;;;;;;;;5033426;28;20175;-43
2023/04/15 02:00:44;;;;;;;17.20;11.35;;;;;;;;;;5033327;28;20566;-46
2023/04/15 02:03:10;;;;;;;12.75;10.70;;;;;;;;;;5031383;28;20188;-44
2023/04/15 02:05:36;;;;;;;13.88;10.05;;;;;;;;;;5033313;28;20595;-44
2023/04/15 02:08:02;;;;;;;13.10;9.83;;;;;;;;;;5032983;28;20237;-43
2023/04/15 02:10:28;;;;;;;10.20;8.75;;;;;;;;;;5035395;28;20422;-44
2023/04/15 02:12:54;;;;;;;19.25;9.93;;;;;;;;;;5034836;28;20206;-44
2023/04/15 02:15:20;;;;;;;13.40;9.37;;;;;;;;;;5031569;28;20206;-43
2023/04/15 02:17:49;;;;;;;16.60;9.80;;;;;;;;;;5030433;28;20410;-43
2023/04/15 02:20:15;;;;;;;11.77;9.07;;;;;;;;;;5032578;28;20430;-43
2023/04/15 02:22:41;;;;;;;15.27;10.95;;;;;;;;;;5032165;28;20631;-43
2023/04/15 02:25:08;;;;;;;19.02;10.30;;;;;;;;;;5026539;28;20262;-44
2023/04/15 02:27:35;;;;;;;18.13;9.73;;;;;;;;;;5032812;28;20184;-43
2023/04/15 02:30:01;;;;;;;13.48;9.90;;;;;;;;;;5031443;28;20184;-43
2023/04/15 02:32:27;;;;;;;17.20;11.50;;;;;;;;;;5032110;28;20202;-43
2023/04/15 02:34:53;;;;;;;16.98;11.25;;;;;;;;;;5032684;28;20457;-42
2023/04/15 02:37:19;;;;;;;13.83;11.13;;;;;;;;;;5035934;28;20326;-43
2023/04/15 02:39:46;;;;;;;12.00;9.93;;;;;;;;;;5028152;28;20401;-43
2023/04/15 02:42:12;;;;;;;18.00;11.32;;;;;;;;;;5031875;28;20434;-43
2023/04/15 02:44:38;;;;;;;13.25;9.73;;;;;;;;;;5031179;28;20654;-43
2023/04/15 02:47:05;;;;;;;14.55;11.60;;;;;;;;;;5032511;28;20180;-43
2023/04/15 02:49:32;;;;;;;11.60;10.40;;;;;;;;;;5032540;28;20175;-44
2023/04/15 02:51:59;;;;;;;14.32;10.80;;;;;;;;;;5031588;28;20191;-43
2023/04/15 02:54:27;;;;;;;16.00;9.75;;;;;;;;;;5032676;28;20524;-43
2023/04/15 02:56:55;;;;;;;15.43;10.82;;;;;;;;;;5031145;28;20269;-43
2023/04/15 02:59:21;;;;;;;13.80;10.65;;;;;;;;;;5032315;28;20164;-43
2023/04/15 03:01:47;;;;;;;22.48;11.02;;;;;;;;;;5036600;28;20264;-43
2023/04/15 03:04:13;;;;;;;16.30;11.60;;;;;;;;;;5033778;28;20819;-43
2023/04/15 03:06:39;;;;;;;15.35;10.82;;;;;;;;;;5032627;28;20441;-45
2023/04/15 03:09:05;;;;;;;17.42;11.57;;;;;;;;;;5031974;28;20189;-44
2023/04/15 03:11:31;;;;;;;19.17;10.97;;;;;;;;;;5030152;28;20747;-45
2023/04/15 03:13:57;;;;;;;12.93;9.98;;;;;;;;;;5031650;28;20960;-44
2023/04/15 03:16:24;;;;;;;18.97;10.37;;;;;;;;;;5031972;28;20195;-45
2023/04/15 03:18:50;;;;;;;13.57;9.90;;;;;;;;;;5032130;28;20945;-45
2023/04/15 03:21:16;;;;;;;15.50;11.27;;;;;;;;;;5031419;28;20176;-44
2023/04/15 03:23:42;;;;;;;14.60;10.20;;;;;;;;;;5024044;28;20462;-45
2023/04/15 03:26:08;;;;;;;17.75;10.95;;;;;;;;;;5030641;28;20647;-45
2023/04/15 03:28:34;;;;;;;16.00;10.60;;;;;;;;;;5031935;28;20223;-45
2023/04/15 03:31:00;;;;;;;14.17;10.00;;;;;;;;;;5030950;28;20414;-45
2023/04/15 03:33:26;;;;;;;13.57;9.43;;;;;;;;;;5031149;28;20433;-45
2023/04/15 03:35:52;;;;;;;14.53;11.13;;;;;;;;;;5031677;28;20856;-45
2023/04/15 03:38:18;;;;;;;13.88;9.93;;;;;;;;;;5031967;28;20501;-45
2023/04/15 03:40:45;;;;;;;13.40;10.23;;;;;;;;;;5030465;28;20283;-45
2023/04/15 03:43:11;;;;;;;18.73;11.48;;;;;;;;;;5030950;28;20438;-45
2023/04/15 03:45:37;;;;;;;16.60;11.47;;;;;;;;;;5031705;28;20277;-44
2023/04/15 03:48:03;;;;;;;23.00;12.40;;;;;;;;;;5031594;28;20508;-44
2023/04/15 03:50:29;;;;;;;18.50;13.55;;;;;;;;;;5031576;28;20772;-45
2023/04/15 03:52:55;;;;;;;19.50;13.17;;;;;;;;;;5028876;28;20737;-45
2023/04/15 03:55:21;;;;;;;18.47;13.37;;;;;;;;;;5031548;28;20521;-45
2023/04/15 03:57:47;;;;;;;24.00;14.53;;;;;;;;;;5031364;28;20493;-44
2023/04/15 04:00:13;;;;;;;17.67;12.87;;;;;;;;;;5031407;28;20890;-45
2023/04/15 04:02:39;;;;;;;19.00;13.80;;;;;;;;;;5030536;28;20903;-45
2023/04/15 04:05:05;;;;;;;15.85;11.82;;;;;;;;;;5031254;28;20420;-44
2023/04/15 04:07:31;;;;;;;23.10;14.38;;;;;;;;;;5030183;28;20254;-45
2023/04/15 04:09:57;;;;;;;19.70;13.33;;;;;;;;;;5031297;28;20271;-45
2023/04/15 04:12:23;;;;;;;17.30;13.85;;;;;;;;;;5030486;28;20418;-45
2023/04/15 04:14:49;;;;;;;17.47;12.90;;;;;;;;;;5031219;28;20674;-44
2023/04/15 04:17:15;;;;;;;16.23;12.27;;;;;;;;;;5031225;28;20491;-45
2023/04/15 04:19:41;;;;;;;18.47;13.57;;;;;;;;;;5034172;28;20437;-45
2023/04/15 04:22:07;;;;;;;20.53;12.70;;;;;;;;;;5035974;28;20454;-45
2023/04/15 04:24:33;;;;;;;20.53;13.80;;;;;;;;;;5028576;28;20456;-45
2023/04/15 04:26:59;;;;;;;17.67;12.40;;;;;;;;;;5031086;28;20808;-45
2023/04/15 04:29:25;;;;;;;16.38;12.05;;;;;;;;;;5031163;28;20167;-45
2023/04/15 04:31:51;;;;;;;17.13;12.65;;;;;;;;;;5030437;28;20559;-45
2023/04/15 04:34:17;;;;;;;20.47;13.97;;;;;;;;;;5030934;28;20176;-44
2023/04/15 04:36:43;;;;;;;18.70;13.43;;;;;;;;;;5030062;28;20462;-45
2023/04/15 04:39:09;;;;;;;17.70;13.73;;;;;;;;;;5030971;28;20425;-44
2023/04/15 04:41:35;;;;;;;17.10;12.95;;;;;;;;;;5032069;28;20421;-45
2023/04/15 04:44:02;;;;;;;17.93;14.63;;;;;;;;;;5033898;28;20268;-44
2023/04/15 04:46:28;;;;;;;19.27;13.40;;;;;;;;;;5044742;28;20418;-45
2023/04/15 04:48:54;;;;;;;22.48;13.98;;;;;;;;;;5034376;28;20258;-45
2023/04/15 04:51:20;;;;;;;21.48;15.52;;;;;;;;;;5034087;28;20250;-44
2023/04/15 04:53:46;;;;;;;19.10;12.50;;;;;;;;;;5036285;28;20640;-44
2023/04/15 04:56:12;;;;;;;19.40;13.17;;;;;;;;;;5030284;28;20468;-46
2023/04/15 04:58:38;;;;;;;17.47;12.90;;;;;;;;;;5034440;28;20421;-45
2023/04/15 05:01:04;;;;;;;17.73;12.97;;;;;;;;;;5034415;28;20406;-45
2023/04/15 05:03:30;;;;;;;25.10;17.10;;;;;;;;;;5032712;28;20485;-45
2023/04/15 05:05:56;;;;;;;20.55;14.27;;;;;;;;;;5034222;28;20942;-46
2023/04/15 05:08:22;;;;;;;21.88;13.95;;;;;;;;;;5034665;28;20199;-45
2023/04/15 05:10:48;;;;;;;18.10;13.53;;;;;;;;;;5039458;28;20206;-45
2023/04/15 05:13:14;;;;;;;19.70;13.27;;;;;;;;;;5034974;28;20485;-44
2023/04/15 05:15:42;;;;;;;21.93;13.50;;;;;;;;;;5034067;28;20453;-45
2023/04/15 05:18:07;;;;;;;19.00;14.10;;;;;;;;;;5033184;28;20414;-45
2023/04/15 05:20:34;;;;;;;20.83;13.70;;;;;;;;;;5034121;28;20243;-45
2023/04/15 05:22:59;;;;;;;20.77;13.25;;;;;;;;;;5029095;28;20778;-45
2023/04/15 05:25:25;;;;;;;17.97;13.87;;;;;;;;;;5034014;28;20222;-45
2023/04/15 05:27:51;;;;;;;15.63;12.40;;;;;;;;;;5033919;28;20767;-45
2023/04/15 05:30:17;;;;;;;18.47;12.80;;;;;;;;;;5033804;28;20464;-45
2023/04/15 05:32:43;;;;;;;18.50;12.93;;;;;;;;;;5032178;28;20430;-45
2023/04/15 05:35:09;;;;;;;22.60;13.90;;;;;;;;;;5033599;28;20218;-44
2023/04/15 05:37:35;;;;;;;17.70;12.90;;;;;;;;;;5032550;28;20418;-44
2023/04/15 05:40:03;;;;;;;18.42;13.25;;;;;;;;;;5033716;28;20426;-45
2023/04/15 05:42:29;;;;;;;16.48;12.65;;;;;;;;;;5032942;28;20599;-45
2023/04/15 05:44:55;;;;;;;19.35;13.23;;;;;;;;;;5032933;28;20203;-45
2023/04/15 05:47:21;;;;;;;16.60;12.93;;;;;;;;;;5033524;28;20167;-45
2023/04/15 05:49:47;;;;;;;19.40;13.07;;;;;;;;;;5033821;28;20209;-45
2023/04/15 05:52:13;;;;;;;17.40;12.97;;;;;;;;;;5032330;28;20488;-45
2023/04/15 05:54:39;;;;;;;19.10;13.40;;;;;;;;;;5033173;28;20411;-44
2023/04/15 05:57:05;;;;;;;15.73;12.70;;;;;;;;;;5033699;28;20532;-45
2023/04/15 05:59:31;;;;;;;14.75;12.10;;;;;;;;;;5032755;28;20873;-45
2023/04/15 06:01:57;;;;;;;16.45;12.02;;;;;;;;;;5029411;28;20201;-45
2023/04/15 06:04:23;;;;;;;19.60;12.53;;;;;;;;;;5033465;28;20506;-44
2023/04/15 06:06:49;;;;;;;16.13;12.03;;;;;;;;;;5033164;28;20414;-44
2023/04/15 06:09:15;;;;;;;18.98;12.07;;;;;;;;;;5033209;28;20494;-45
2023/04/15 06:11:41;;;;;;;16.75;13.25;;;;;;;;;;5032319;28;20180;-44
2023/04/15 06:14:07;;;;;;;16.13;13.05;;;;;;;;;;5031141;28;20175;-44
2023/04/15 06:16:35;;;;;;;19.20;13.53;;;;;;;;;;5032928;28;20234;-44
2023/04/15 06:19:01;;;;;;;19.83;12.80;;;;;;;;;;5030397;28;20410;-44
2023/04/15 06:21:27;;;;;;;18.80;12.20;;;;;;;;;;5030227;28;20175;-45
2023/04/15 06:23:53;;;;;;;19.17;13.37;;;;;;;;;;5029246;28;20445;-45
2023/04/15 06:26:19;;;;;;;17.75;12.20;;;;;;;;;;5025436;28;20497;-45
2023/04/15 06:28:45;;;;;;;22.90;13.70;;;;;;;;;;5036958;28;20184;-45
2023/04/15 06:31:11;;;;;;;15.63;12.70;;;;;;;;;;5033602;28;20722;-45
2023/04/15 06:33:38;;;;;;;19.07;13.37;;;;;;;;;;5028182;28;21080;-45
2023/04/15 06:36:04;;;;;;;19.08;13.65;;;;;;;;;;5027120;28;20506;-45
2023/04/15 06:38:30;;;;;;;19.93;12.90;;;;;;;;;;5028632;28;20170;-45
2023/04/15 06:40:56;;;;;;;20.23;12.53;;;;;;;;;;5028791;28;20410;-45
2023/04/15 06:43:23;;;;;;;19.20;12.70;;;;;;;;;;5031725;28;20418;-44
2023/04/15 06:45:49;;;;;;;16.00;11.60;;;;;;;;;;5032477;28;20443;-45
2023/04/15 06:48:16;;;;;;;18.83;13.33;;;;;;;;;;5032247;28;20509;-45
2023/04/15 06:50:42;;;;;;;19.00;14.67;;;;;;;;;;5026935;28;20442;-46
2023/04/15 06:53:08;;;;;;;17.23;13.93;;;;;;;;;;5022577;28;20449;-45
2023/04/15 06:55:34;;;;;;;17.70;13.67;;;;;;;;;;5037803;28;20462;-45
2023/04/15 06:58:00;;;;;;;19.30;14.40;;;;;;;;;;5032596;28;20411;-45
2023/04/15 07:00:27;;;;;;;20.57;14.80;;;;;;;;;;5032147;28;20429;-45
2023/04/15 07:02:54;;;;;;;21.77;16.87;;;;;;;;;;5030950;28;20800;-44
2023/04/15 07:05:20;;;;;;;17.17;13.00;;;;;;;;;;5029101;28;20462;-45
2023/04/15 07:07:46;;;;;;;19.27;13.67;;;;;;;;;;5024426;28;20523;-45
2023/04/15 07:10:13;;;;;;;27.13;17.50;;;;;;;;;;5022964;28;20441;-45
2023/04/15 07:12:40;;;;;;;18.67;13.37;;;;;;;;;;5030477;28;20463;-45
2023/04/15 07:15:06;;;;;;;17.43;12.90;;;;;;;;;;5031399;28;20464;-45
2023/04/15 07:17:33;;;;;;;17.00;13.30;;;;;;;;;;5028982;28;20399;-45
2023/04/15 07:19:58;;;;;;;16.37;12.70;;;;;;;;;;5034915;28;20516;-45
2023/04/15 07:22:25;;;;;;;17.00;14.67;;;;;;;;;;5031684;28;20508;-44
2023/04/15 07:24:51;;;;;;;14.27;11.97;;;;;;;;;;5031399;28;20440;-45
2023/04/15 07:27:17;;;;;;;18.40;12.97;;;;;;;;;;5029476;28;20420;-45
2023/04/15 07:29:43;;;;;;;20.00;13.43;;;;;;;;;;5028102;28;20936;-45
2023/04/15 07:32:09;;;;;;;20.70;14.03;;;;;;;;;;5030940;28;20434;-46
2023/04/15 07:34:36;;;;;;;17.80;11.70;;;;;;;;;;5027309;28;20461;-46
2023/04/15 07:37:02;;;;;;;14.77;11.30;;;;;;;;;;5029505;28;20469;-45
2023/04/15 07:39:28;;;;;;;14.97;12.67;;;;;;;;;;5035981;28;20402;-45
2023/04/15 07:41:55;;;;;;;15.37;10.60;;;;;;;;;;5031936;28;20503;-44
2023/04/15 07:44:21;;;;;;;15.03;11.23;;;;;;;;;;5026987;28;20540;-44
2023/04/15 07:46:47;;;;;;;17.67;11.20;;;;;;;;;;5028615;28;20877;-44
2023/04/15 07:49:13;;;;;;;17.70;11.63;;;;;;;;;;5023235;28;20430;-44
2023/04/15 07:51:39;;;;;;;17.97;11.03;;;;;;;;;;5030246;28;20415;-45
2023/04/15 07:54:05;;;;;;;15.10;11.30;;;;;;;;;;5029365;28;20930;-44
2023/04/15 07:56:31;;;;;;;20.07;11.73;;;;;;;;;;5031309;28;20505;-44
2023/04/15 07:58:57;;;;;;;21.20;11.20;;;;;;;;;;5031556;28;20448;-43
2023/04/15 08:01:23;;;;;;;18.10;11.63;;;;;;;;;;5025360;28;20411;-43
2023/04/15 08:03:49;;;;;;;13.80;11.03;;;;;;;;;;5031713;28;20420;-43
2023/04/15 08:06:15;;;;;;;17.67;11.47;;;;;;;;;;5031092;28;20426;-44
2023/04/15 08:08:41;;;;;;;15.23;10.33;;;;;;;;;;5031241;28;20455;-44
2023/04/15 08:11:08;;;;;;;13.27;10.67;;;;;;;;;;5032317;28;20468;-43
2023/04/15 08:13:34;;;;;;;12.93;9.23;;;;;;;;;;5030728;28;20461;-43
2023/04/15 08:16:18;;;;;;;15.10;9.93;;;;;;;;;;5034686;28;20474;-44
2023/04/15 08:18:44;;;;;;;13.07;10.40;;;;;;;;;;5030625;28;20399;-44
2023/04/15 08:21:10;;;;;;;16.37;10.40;;;;;;;;;;5035087;28;20900;-44
2023/04/15 08:23:37;;;;;;;10.87;8.90;;;;;;;;;;5032531;28;20435;-44
2023/04/15 08:26:03;;;;;;;13.50;9.60;;;;;;;;;;5034264;28;20439;-44
2023/04/15 08:28:30;;;;;;;15.67;9.00;;;;;;;;;;5035071;28;20409;-45
2023/04/15 08:30:56;;;;;;;10.67;7.97;;;;;;;;;;5035053;28;20804;-44
2023/04/15 08:33:22;;;;;;;8.73;6.83;;;;;;;;;;5034147;28;20440;-44
2023/04/15 08:35:48;;;;;;;9.30;6.97;;;;;;;;;;5034850;28;20443;-45
2023/04/15 08:38:14;;;;;;;7.70;6.30;;;;;;;;;;5034847;28;20410;-44
2023/04/15 08:40:41;;;;;;;8.00;6.07;;;;;;;;;;5034896;28;20435;-44
2023/04/15 08:43:09;;;;;;;10.37;6.60;;;;;;;;;;5034056;28;20408;-43
2023/04/15 08:45:35;;;;;;;6.60;6.00;;;;;;;;;;5035133;28;20777;-44
2023/04/15 08:48:03;;;;;;;7.03;6.23;;;;;;;;;;5034532;28;20414;-44
2023/04/15 08:50:31;;;;;;;6.80;5.97;;;;;;;;;;5033735;28;20414;-44
2023/04/15 08:52:58;;;;;;;6.50;5.10;;;;;;;;;;5035694;28;20453;-44
2023/04/15 08:55:26;;;;;;;6.20;5.60;;;;;;;;;;5034606;28;20470;-44
2023/04/15 08:57:51;;;;;;;7.23;5.70;;;;;;;;;;5034638;28;20430;-44
2023/04/15 09:00:18;;;;;;;6.33;5.53;;;;;;;;;;5032819;28;20460;-44
2023/04/15 09:02:44;;;;;;;7.90;6.37;;;;;;;;;;5033727;28;20433;-43
2023/04/15 09:05:10;;;;;;;10.20;6.27;;;;;;;;;;5034311;28;20453;-44
2023/04/15 09:07:36;;;;;;;8.10;5.90;;;;;;;;;;5032253;28;20446;-45
2023/04/15 09:10:03;;;;;;;5.90;5.30;;;;;;;;;;5035500;28;20424;-45
2023/04/15 09:12:30;;;;;;;7.20;5.43;;;;;;;;;;5034778;28;20435;-44
2023/04/15 09:14:57;;;;;;;8.27;5.37;;;;;;;;;;5035311;28;20480;-46
2023/04/15 09:17:25;;;;;;;7.53;5.47;;;;;;;;;;5036165;28;20425;-47
2023/04/15 09:20:07;;;;;;;6.27;5.10;;;;;;;;;;5035513;28;20797;-46
2023/04/15 09:22:32;;;;;;;7.37;5.97;;;;;;;;;;5031468;28;20434;-45
2023/04/15 09:24:59;;;;;;;7.33;5.57;;;;;;;;;;5035470;28;20407;-46
2023/04/15 09:27:25;;;;;;;5.37;4.87;;;;;;;;;;5034172;28;20431;-46
2023/04/15 09:29:53;;;;;;;6.43;5.30;;;;;;;;;;5035333;28;20443;-46
2023/04/15 09:32:22;;;;;;;6.10;5.50;;;;;;;;;;5032796;28;20808;-46
2023/04/15 09:34:48;;;;;;;6.63;5.80;;;;;;;;;;5035158;28;20436;-46
2023/04/15 09:37:17;;;;;;;7.97;6.80;;;;;;;;;;5033280;28;20439;-45
2023/04/15 09:39:50;;;;;;;6.23;5.63;;;;;;;;;;5015337;28;20919;-46
2023/04/15 09:42:23;;;;;;;6.50;6.00;;;;;;;;;;5013837;28;20450;-46
2023/04/15 09:44:49;;;;;;;7.40;6.20;;;;;;;;;;5043977;28;20522;-47
2023/04/15 09:47:30;;;;;;;8.07;6.83;;;;;;;;;;5028723;28;20428;-46
2023/04/15 09:49:57;;;;;;;7.03;6.10;;;;;;;;;;5014382;28;20428;-46
2023/04/15 09:52:23;;;;;;;8.67;7.23;;;;;;;;;;5013241;28;20494;-45
2023/04/15 09:54:52;;;;;;;7.40;6.60;;;;;;;;;;5017170;28;20846;-45
2023/04/15 09:57:18;;;;;;;6.30;5.70;;;;;;;;;;5034145;28;20431;-45
2023/04/15 09:59:44;;;;;;;6.97;6.20;;;;;;;;;;5033983;28;20765;-46
2023/04/15 10:02:11;;;;;;;7.10;6.37;;;;;;;;;;5032992;28;20842;-46
2023/04/15 10:04:40;;;;;;;6.80;6.00;;;;;;;;;;5033560;28;20407;-45
2023/04/15 10:07:08;;;;;;;7.43;6.30;;;;;;;;;;5033364;28;20902;-46
2023/04/15 10:09:35;;;;;;;8.13;7.10;;;;;;;;;;5038502;28;20515;-46
2023/04/15 10:12:03;;;;;;;7.57;6.87;;;;;;;;;;5034603;28;20530;-46
2023/04/15 10:14:31;;;;;;;6.90;6.20;;;;;;;;;;5013517;28;20423;-46
2023/04/15 10:16:58;;;;;;;6.60;5.87;;;;;;;;;;5013551;28;20473;-46
2023/04/15 10:19:26;;;;;;;6.80;5.50;;;;;;;;;;5013447;28;20401;-45
2023/04/15 10:21:53;;;;;;;10.43;7.10;;;;;;;;;;5012798;28;20425;-45
2023/04/15 10:24:19;;;;;;;14.60;9.20;;;;;;;;;;5013799;28;20476;-46
2023/04/15 10:26:45;;;;;;;10.10;9.10;;;;;;;;;;5013636;28;20512;-44
2023/04/15 10:29:11;;;;;;;11.60;8.33;;;;;;;;;;5013975;28;20428;-45
2023/04/15 10:31:38;;;;;;;10.20;8.00;;;;;;;;;;5012994;28;20428;-47
2023/04/15 10:34:05;;;;;;;8.73;7.80;;;;;;;;;;5013197;28;20470;-47
2023/04/15 10:36:32;;;;;;;9.60;7.80;;;;;;;;;;5039376;28;20460;-45
2023/04/15 10:38:57;;;;;;;10.27;8.67;;;;;;;;;;5037187;28;20836;-46
2023/04/15 10:41:30;;;;;;;10.20;8.10;;;;;;;;;;5012903;28;20405;-44
2023/04/15 10:43:59;;;;;;;9.17;7.70;;;;;;;;;;5013659;28;20494;-45
2023/04/15 10:46:36;;;;;;;12.23;8.50;;;;;;;;;;5013090;28;20503;-47
2023/04/15 10:49:07;;;;;;;8.03;7.23;;;;;;;;;;5013284;28;20416;-46
2023/04/15 10:51:33;;;;;;;7.67;6.40;;;;;;;;;;5012323;28;20411;-45
2023/04/15 10:53:59;;;;;;;9.47;7.20;;;;;;;;;;5013388;28;20450;-45
2023/04/15 10:56:25;;;;;;;10.60;7.27;;;;;;;;;;5029413;28;20510;-45
2023/04/15 10:58:51;;;;;;;7.40;6.40;;;;;;;;;;5032921;28;20394;-46
2023/04/15 11:01:21;;;;;;;7.60;6.27;;;;;;;;;;5034210;28;20431;-44
2023/04/15 11:03:48;;;;;;;7.90;6.87;;;;;;;;;;5035847;28;20873;-44
2023/04/15 11:06:14;;;;;;;7.83;5.83;;;;;;;;;;5017783;28;20458;-45
2023/04/15 11:08:53;;;;;;;8.70;6.20;;;;;;;;;;5025724;28;20457;-45
2023/04/15 11:11:19;;;;;;;7.83;6.17;;;;;;;;;;5030117;28;20826;-44
2023/04/15 11:13:49;;;;;;;6.47;5.13;;;;;;;;;;5027045;28;20444;-46
2023/04/15 11:16:15;;;;;;;6.73;6.07;;;;;;;;;;5030351;28;20476;-45
2023/04/15 11:18:41;;;;;;;8.13;5.10;;;;;;;;;;5028205;28;20406;-46
2023/04/15 11:21:08;;;;;;;6.90;5.57;;;;;;;;;;5030698;28;20822;-44
2023/04/15 11:23:45;;;;;;;5.63;5.03;;;;;;;;;;5031178;28;20468;-46
2023/04/15 11:26:11;;;;;;;6.60;5.90;;;;;;;;;;5029864;28;20410;-46
2023/04/15 11:28:39;;;;;;;22.00;19.70;;;;;;;;;;5034686;28;20468;-46
2023/04/15 11:31:07;;;;;;;12.90;8.90;;;;;;;;;;5031786;28;20419;-46
2023/04/15 11:33:33;;;;;;;6.40;5.13;;;;;;;;;;5028529;28;20563;-45
2023/04/15 11:35:59;;;;;;;7.00;6.20;;;;;;;;;;5022649;28;20958;-46
2023/04/15 11:38:25;;;;;;;7.87;6.10;;;;;;;;;;5011307;28;20830;-44
2023/04/15 11:40:51;;;;;;;10.27;6.13;;;;;;;;;;5011423;28;20395;-45
2023/04/15 11:43:22;;;;;;;7.33;6.10;;;;;;;;;;5027079;28;20433;-45
2023/04/15 11:45:56;;;;;;;6.27;5.63;;;;;;;;;;5031037;28;20471;-45
2023/04/15 11:48:24;;;;;;;6.23;5.63;;;;;;;;;;5031643;28;20406;-46
2023/04/15 11:50:57;;;;;;;7.20;5.27;;;;;;;;;;5027924;28;20957;-44
2023/04/15 11:53:24;;;;;;;7.03;6.30;;;;;;;;;;5029598;28;20457;-45
2023/04/15 11:55:51;;;;;;;8.17;6.50;;;;;;;;;;5037942;28;20538;-45
2023/04/15 11:58:17;;;;;;;7.80;6.60;;;;;;;;;;5031576;28;20508;-46
2023/04/15 12:00:47;;;;;;;10.13;6.50;;;;;;;;;;5031684;28;20930;-46
2023/04/15 12:03:13;;;;;;;8.10;6.37;;;;;;;;;;5030251;28;20488;-45
2023/04/15 12:05:58;;;;;;;7.90;6.00;;;;;;;;;;5030807;28;20878;-45
2023/04/15 12:08:24;;;;;;;10.40;6.40;;;;;;;;;;5031771;28;20410;-45
2023/04/15 12:10:50;;;;;;;8.33;6.07;;;;;;;;;;5031705;28;20418;-45
2023/04/15 12:13:16;;;;;;;6.00;5.40;;;;;;;;;;5031206;28;20446;-44
2023/04/15 12:15:42;;;;;;;8.00;5.80;;;;;;;;;;5031559;28;20545;-44
2023/04/15 12:18:16;;;;;;;8.70;5.93;;;;;;;;;;5033969;28;20929;-46
2023/04/15 12:20:45;;;;;;;7.43;6.23;;;;;;;;;;5036732;28;20485;-45
2023/04/15 12:23:10;;;;;;;6.13;5.50;;;;;;;;;;5012152;28;20443;-46
2023/04/15 12:25:36;;;;;;;7.37;6.30;;;;;;;;;;5012684;28;20414;-45
2023/04/15 12:28:10;;;;;;;7.73;6.20;;;;;;;;;;5012653;28;20497;-45
2023/04/15 12:30:36;;;;;;;9.43;6.50;;;;;;;;;;5012949;28;20399;-45
2023/04/15 12:33:02;;;;;;;7.93;6.53;;;;;;;;;;5012382;28;20438;-46
2023/04/15 12:35:28;;;;;;;8.07;6.50;;;;;;;;;;5012780;28;20467;-45
2023/04/15 12:37:54;;;;;;;6.07;5.47;;;;;;;;;;5012804;28;20502;-44
2023/04/15 12:40:20;;;;;;;8.53;5.87;;;;;;;;;;5012773;28;20469;-46
2023/04/15 12:42:46;;;;;;;7.70;6.23;;;;;;;;;;5011967;28;20548;-45
2023/04/15 12:45:12;;;;;;;5.87;5.13;;;;;;;;;;5031154;28;20497;-45
2023/04/15 12:47:38;;;;;;;6.47;5.77;;;;;;;;;;5031326;28;20434;-45
2023/04/15 12:50:04;;;;;;;9.00;6.53;;;;;;;;;;5032401;28;20468;-44
2023/04/15 12:52:30;;;;;;;7.33;6.23;;;;;;;;;;5031866;28;20812;-44
2023/04/15 12:54:56;;;;;;;7.37;6.30;;;;;;;;;;5032911;28;20414;-45
2023/04/15 12:57:22;;;;;;;6.73;5.67;;;;;;;;;;5026820;28;20975;-46
2023/04/15 12:59:48;;;;;;;7.03;6.33;;;;;;;;;;5032660;28;21009;-46
2023/04/15 13:02:14;;;;;;;6.43;5.67;;;;;;;;;;5032412;28;20960;-47
2023/04/15 13:04:40;;;;;;;8.53;6.20;;;;;;;;;;5036275;28;20469;-46
2023/04/15 13:07:06;;;;;;;6.67;4.90;;;;;;;;;;5038621;28;20445;-45
2023/04/15 13:09:32;;;;;;;6.13;5.50;;;;;;;;;;5032688;28;20410;-45
2023/04/15 13:11:58;;;;;;;5.50;5.00;;;;;;;;;;5035669;28;20436;-46
2023/04/15 13:14:25;;;;;;;8.90;5.77;;;;;;;;;;5035917;28;20620;-45
2023/04/15 13:16:52;;;;;;;7.03;5.70;;;;;;;;;;5035373;28;20956;-46
2023/04/15 13:19:18;;;;;;;6.83;6.13;;;;;;;;;;5036185;28;20501;-45
2023/04/15 13:21:44;;;;;;;8.53;5.80;;;;;;;;;;5034619;28;20981;-45
2023/04/15 13:24:10;;;;;;;8.03;5.30;;;;;;;;;;5035954;28;20464;-45
2023/04/15 13:26:36;;;;;;;6.67;4.70;;;;;;;;;;5035623;28;20811;-46
2023/04/15 13:29:02;;;;;;;5.60;5.10;;;;;;;;;;5035538;28;20414;-46
2023/04/15 13:31:28;;;;;;;6.77;4.90;;;;;;;;;;5034041;28;20890;-45
2023/04/15 13:33:54;;;;;;;5.07;4.57;;;;;;;;;;5035373;28;20929;-44
2023/04/15 13:36:20;;;;;;;5.47;4.33;;;;;;;;;;5031062;28;20991;-45
2023/04/15 13:38:46;;;;;;;5.77;5.17;;;;;;;;;;5035946;28;20419;-46
2023/04/15 13:41:12;;;;;;;6.73;5.43;;;;;;;;;;5035604;28;20410;-44
2023/04/15 13:43:38;;;;;;;5.60;4.93;;;;;;;;;;5035381;28;20429;-44
2023/04/15 13:46:04;;;;;;;5.60;5.10;;;;;;;;;;5035187;28;20446;-45
2023/04/15 13:48:30;;;;;;;5.57;4.87;;;;;;;;;;5035794;28;20442;-45
2023/04/15 13:50:56;;;;;;;6.00;5.40;;;;;;;;;;5035998;28;20434;-46
2023/04/15 13:53:22;;;;;;;7.33;4.87;;;;;;;;;;5035253;28;20435;-45
2023/04/15 13:55:48;;;;;;;7.33;5.53;;;;;;;;;;5029271;28;20994;-47
2023/04/15 13:58:14;;;;;;;8.17;5.37;;;;;;;;;;5033959;28;20454;-46
2023/04/15 14:00:40;;;;;;;5.90;4.63;;;;;;;;;;5035638;28;20404;-46
2023/04/15 14:03:06;;;;;;;5.40;4.63;;;;;;;;;;5034735;28;20524;-45
2023/04/15 14:05:32;;;;;;;8.37;4.87;;;;;;;;;;5035045;28;20418;-45
2023/04/15 14:07:59;;;;;;;6.67;5.40;;;;;;;;;;5038815;28;20463;-45
2023/04/15 14:10:25;;;;;;;5.70;4.60;;;;;;;;;;5028273;28;20819;-46
2023/04/15 14:12:51;;;;;;;4.73;3.80;;;;;;;;;;5034217;28;20468;-46
2023/04/15 14:15:17;;;;;;;7.13;5.27;;;;;;;;;;5034160;28;20429;-45
2023/04/15 14:17:43;;;;;;;5.93;5.27;;;;;;;;;;5034610;28;20416;-44
2023/04/15 14:20:09;;;;;;;6.67;5.37;;;;;;;;;;5035395;28;20407;-44
2023/04/15 14:22:35;;;;;;;6.47;5.00;;;;;;;;;;5034240;28;20430;-45
2023/04/15 14:25:01;;;;;;;6.20;4.90;;;;;;;;;;5035082;28;20417;-46